createdAt,value
2023-02-11T00:01:37.274Z,67.98
2023-02-11T00:04:06.285Z,67.08
2023-02-11T00:06:35.334Z,66.57
2023-02-11T00:09:02.295Z,66.93
2023-02-11T00:11:32.659Z,65.93
2023-02-11T00:14:03.480Z,65.71
2023-02-11T00:16:31.820Z,65.40
2023-02-11T00:19:02.972Z,65.28
2023-02-11T00:21:29.644Z,64.86
2023-02-11T00:23:58.622Z,65.80
2023-02-11T00:26:33.036Z,65.75
2023-02-11T00:29:00.883Z,66.04
2023-02-11T00:31:28.294Z,65.94
2023-02-11T00:33:55.353Z,65.95
2023-02-11T00:36:25.914Z,65.90
2023-02-11T00:38:54.660Z,65.57
2023-02-11T00:41:22.808Z,65.97
2023-02-11T00:43:50.442Z,66.43
2023-02-11T00:46:17.115Z,66.64
2023-02-11T00:48:43.867Z,66.32
2023-02-11T00:51:10.866Z,66.97
2023-02-11T00:53:38.045Z,66.71
2023-02-11T00:56:05.725Z,66.74
2023-02-11T00:58:32.565Z,66.74
2023-02-11T01:00:59.183Z,67.51
2023-02-11T01:03:26.165Z,66.91
2023-02-11T01:05:53.104Z,67.22
2023-02-11T01:08:19.986Z,66.98
2023-02-11T01:11:01.480Z,67.33
2023-02-11T01:13:32.767Z,68.19
2023-02-11T01:15:59.932Z,69.12
2023-02-11T01:18:27.297Z,69.17
2023-02-11T01:20:54.426Z,68.96
2023-02-11T01:23:21.572Z,68.37
2023-02-11T01:25:48.981Z,67.85
2023-02-11T01:28:27.714Z,67.56
2023-02-11T01:30:55.830Z,67.31
2023-02-11T01:33:23.906Z,68.01
2023-02-11T01:35:50.872Z,68.46
2023-02-11T01:38:22.033Z,68.31
2023-02-11T01:40:57.791Z,68.10
2023-02-11T01:43:26.932Z,67.96
2023-02-11T01:46:00.467Z,66.99
2023-02-11T01:48:36.266Z,67.66
2023-02-11T01:51:26.979Z,67.71
2023-02-11T01:54:14.830Z,67.98
2023-02-11T01:57:07.617Z,68.38
2023-02-11T01:59:45.872Z,68.21
2023-02-11T02:02:17.750Z,67.73
2023-02-11T02:05:04.643Z,67.39
2023-02-11T02:07:47.162Z,67.43
2023-02-11T02:10:21.013Z,65.90
2023-02-11T02:12:47.549Z,66.27
2023-02-11T02:15:39.060Z,66.25
2023-02-11T02:19:16.281Z,65.38
2023-02-11T02:21:48.363Z,65.77
2023-02-11T02:24:56.540Z,66.63
2023-02-11T02:27:27.503Z,67.14
2023-02-11T02:30:53.210Z,66.06
2023-02-11T02:33:49.924Z,66.17
2023-02-11T02:36:47.723Z,66.99
2023-02-11T02:39:33.753Z,66.79
2023-02-11T02:42:01.831Z,67.32
2023-02-11T02:44:29.919Z,67.08
2023-02-11T02:46:56.711Z,66.94
2023-02-11T02:49:23.538Z,66.09
2023-02-11T02:52:05.997Z,65.75
2023-02-11T02:55:11.455Z,66.11
2023-02-11T02:58:19.492Z,66.64
2023-02-11T03:01:34.628Z,67.57
2023-02-11T03:04:30.900Z,66.72
2023-02-11T03:07:20.747Z,67.03
2023-02-11T03:10:00.435Z,67.27
2023-02-11T03:12:32.404Z,67.25
2023-02-11T03:15:02.377Z,67.10
2023-02-11T03:17:34.940Z,66.51
2023-02-11T03:20:05.651Z,66.26
2023-02-11T03:22:49.995Z,65.71
2023-02-11T03:25:17.400Z,66.78
2023-02-11T03:27:54.770Z,66.96
2023-02-11T03:30:39.757Z,66.99
2023-02-11T03:33:23.136Z,67.21
2023-02-11T03:36:03.373Z,67.39
2023-02-11T03:38:41.166Z,67.81
2023-02-11T03:41:12.516Z,67.89
2023-02-11T03:43:47.279Z,67.29
2023-02-11T03:46:18.364Z,67.37
2023-02-11T03:48:52.373Z,67.32
2023-02-11T03:51:27.428Z,67.22
2023-02-11T03:53:59.502Z,66.91
2023-02-11T03:56:36.598Z,66.69
2023-02-11T03:59:03.208Z,66.75
2023-02-11T04:01:29.731Z,67.41
2023-02-11T04:03:56.229Z,67.29
2023-02-11T04:06:23.002Z,66.92
2023-02-11T04:08:49.505Z,66.75
2023-02-11T04:11:15.972Z,66.13
2023-02-11T04:13:42.421Z,66.16
2023-02-11T04:16:08.922Z,65.95
2023-02-11T04:18:35.373Z,65.82
2023-02-11T04:21:01.911Z,66.89
2023-02-11T04:23:28.470Z,66.49
2023-02-11T04:25:54.909Z,66.02
2023-02-11T04:28:21.755Z,66.75
2023-02-11T04:30:51.445Z,66.21
2023-02-11T04:33:18.245Z,66.23
2023-02-11T04:35:50.909Z,66.37
2023-02-11T04:38:17.881Z,66.63
2023-02-11T04:40:44.382Z,66.59
2023-02-11T04:43:10.910Z,66.61
2023-02-11T04:45:37.508Z,66.87
2023-02-11T04:48:04.509Z,66.38
2023-02-11T04:50:31.040Z,66.02
2023-02-11T04:52:57.575Z,66.82
2023-02-11T04:55:24.219Z,66.63
2023-02-11T04:57:50.741Z,67.01
2023-02-11T05:00:17.586Z,67.47
2023-02-11T05:02:44.198Z,67.53
2023-02-11T05:05:10.707Z,67.02
2023-02-11T05:07:42.494Z,67.30
2023-02-11T05:10:09.244Z,67.51
2023-02-11T05:12:35.680Z,67.71
2023-02-11T05:15:02.173Z,67.22
2023-02-11T05:17:28.636Z,67.11
2023-02-11T05:19:55.117Z,66.94
2023-02-11T05:22:22.093Z,66.66
2023-02-11T05:24:50.114Z,66.59
2023-02-11T05:27:16.683Z,66.61
2023-02-11T05:29:43.187Z,66.15
2023-02-11T05:32:09.651Z,66.54
2023-02-11T05:34:36.845Z,66.33
2023-02-11T05:37:03.520Z,66.39
2023-02-11T05:39:30.048Z,66.53
2023-02-11T05:41:56.610Z,66.39
2023-02-11T05:44:23.255Z,67.08
2023-02-11T05:46:49.764Z,67.08
2023-02-11T05:49:17.885Z,67.23
2023-02-11T05:51:44.385Z,67.33
2023-02-11T05:54:10.984Z,67.42
2023-02-11T05:56:37.539Z,67.87
2023-02-11T05:59:04.114Z,67.53
2023-02-11T06:01:30.693Z,67.51
2023-02-11T06:03:57.217Z,67.95
2023-02-11T06:06:25.165Z,67.82
2023-02-11T06:08:52.028Z,67.95
2023-02-11T06:11:18.799Z,67.80
2023-02-11T06:13:45.715Z,67.63
2023-02-11T06:16:12.276Z,67.50
2023-02-11T06:18:38.781Z,67.68
2023-02-11T06:21:14.881Z,67.19
2023-02-11T06:23:43.633Z,67.20
2023-02-11T06:26:19.904Z,67.06
2023-02-11T06:28:46.812Z,67.63
2023-02-11T06:31:14.342Z,67.36
2023-02-11T06:33:41.295Z,67.49
2023-02-11T06:36:20.554Z,67.60
2023-02-11T06:38:47.836Z,68.15
2023-02-11T06:41:17.214Z,67.84
2023-02-11T06:43:44.390Z,67.66
2023-02-11T06:46:11.006Z,67.91
2023-02-11T06:48:37.745Z,68.41
2023-02-11T06:51:07.872Z,68.25
2023-02-11T06:53:44.256Z,67.57
2023-02-11T06:56:15.196Z,67.67
2023-02-11T06:58:42.316Z,67.66
2023-02-11T07:01:13.222Z,67.18
2023-02-11T07:03:45.987Z,68.36
2023-02-11T07:06:17.994Z,68.24
2023-02-11T07:08:45.946Z,68.14
2023-02-11T07:11:19.417Z,67.78
2023-02-11T07:13:47.147Z,67.53
2023-02-11T07:16:19.837Z,67.85
2023-02-11T07:18:47.907Z,68.40
2023-02-11T07:21:18.933Z,68.79
2023-02-11T07:23:46.502Z,68.98
2023-02-11T07:26:16.876Z,69.72
2023-02-11T07:28:44.527Z,69.18
2023-02-11T07:31:18.480Z,69.19
2023-02-11T07:33:45.955Z,69.10
2023-02-11T07:36:15.320Z,69.00
2023-02-11T07:38:42.708Z,69.22
2023-02-11T07:41:13.987Z,69.02
2023-02-11T07:43:41.996Z,68.62
2023-02-11T07:46:13.509Z,68.27
2023-02-11T07:48:40.268Z,68.91
2023-02-11T07:51:17.770Z,69.00
2023-02-11T07:53:45.279Z,69.09
2023-02-11T07:56:14.137Z,70.40
2023-02-11T07:58:42.957Z,70.18
2023-02-11T08:01:14.312Z,69.61
2023-02-11T08:03:42.824Z,69.85
2023-02-11T08:06:14.847Z,69.89
2023-02-11T08:08:42.472Z,69.87
2023-02-11T08:11:15.389Z,69.45
2023-02-11T08:13:42.049Z,70.16
2023-02-11T08:16:09.616Z,70.69
2023-02-11T08:18:36.800Z,71.78
2023-02-11T08:21:08.880Z,71.31
2023-02-11T08:23:41.347Z,71.72
2023-02-11T08:26:14.548Z,72.20
2023-02-11T08:28:44.578Z,71.03
2023-02-11T08:31:17.266Z,71.15
2023-02-11T08:33:44.551Z,71.44
2023-02-11T08:36:20.806Z,71.89
2023-02-11T08:38:47.580Z,71.74
2023-02-11T08:41:15.061Z,72.13
2023-02-11T08:43:43.521Z,71.59
2023-02-11T08:46:15.705Z,71.98
2023-02-11T08:48:43.561Z,71.55
2023-02-11T08:51:15.586Z,71.54
2023-02-11T08:53:42.392Z,71.74
2023-02-11T08:56:13.358Z,71.94
2023-02-11T08:58:40.558Z,72.43
2023-02-11T09:01:18.286Z,72.54
2023-02-11T09:03:44.992Z,72.87
2023-02-11T09:06:13.909Z,72.70
2023-02-11T09:08:47.000Z,71.97
2023-02-11T09:11:13.860Z,72.12
2023-02-11T09:13:43.272Z,72.54
2023-02-11T09:16:18.519Z,72.37
2023-02-11T09:18:45.653Z,72.91
2023-02-11T09:21:13.383Z,72.42
2023-02-11T09:23:43.479Z,72.29
2023-02-11T09:26:16.053Z,71.78
2023-02-11T09:28:42.881Z,72.09
2023-02-11T09:31:17.434Z,71.93
2023-02-11T09:33:47.977Z,72.47
2023-02-11T09:36:21.795Z,72.37
2023-02-11T09:38:49.146Z,72.10
2023-02-11T09:41:54.336Z,72.04
2023-02-11T09:44:25.618Z,71.98
2023-02-11T09:47:30.515Z,72.53
2023-02-11T09:50:04.680Z,72.70
2023-02-11T09:52:44.964Z,72.36
2023-02-11T09:55:28.443Z,72.61
2023-02-11T09:57:56.735Z,71.96
2023-02-11T10:00:36.761Z,72.57
2023-02-11T10:03:30.878Z,71.63
2023-02-11T10:06:13.413Z,71.52
2023-02-11T10:08:50.996Z,72.01
2023-02-11T10:11:49.502Z,71.97
2023-02-11T10:14:21.745Z,72.36
2023-02-11T10:17:13.172Z,72.01
2023-02-11T10:20:03.574Z,72.45
2023-02-11T10:22:43.079Z,72.82
2023-02-11T10:25:33.547Z,73.14
2023-02-11T10:28:10.422Z,72.93
2023-02-11T10:30:59.739Z,72.95
2023-02-11T10:33:47.444Z,72.71
2023-02-11T10:36:17.717Z,72.00
2023-02-11T10:38:44.691Z,70.94
2023-02-11T10:41:22.549Z,70.35
2023-02-11T10:43:50.838Z,69.75
2023-02-11T10:46:31.879Z,69.61
2023-02-11T10:48:58.507Z,69.20
2023-02-11T10:51:33.577Z,68.70
2023-02-11T10:54:11.956Z,69.34
2023-02-11T10:56:52.807Z,68.90
2023-02-11T10:59:40.011Z,69.12
2023-02-11T11:02:34.710Z,71.43
2023-02-11T11:05:23.690Z,70.66
2023-02-11T11:08:01.664Z,69.72
2023-02-11T11:10:43.178Z,69.50
2023-02-11T11:13:35.424Z,69.59
2023-02-11T11:16:29.383Z,69.31
2023-02-11T11:19:08.187Z,69.41
2023-02-11T11:21:42.105Z,69.58
2023-02-11T11:24:40.586Z,69.66
2023-02-11T11:27:16.630Z,69.99
2023-02-11T11:29:51.470Z,69.88
2023-02-11T11:32:27.959Z,70.23
2023-02-11T11:35:05.529Z,69.69
2023-02-11T11:37:36.403Z,69.70
2023-02-11T11:40:15.000Z,69.24
2023-02-11T11:42:42.021Z,68.98
2023-02-11T11:45:20.320Z,68.53
2023-02-11T11:48:03.093Z,68.48
2023-02-11T11:50:43.312Z,68.31
2023-02-11T11:53:40.676Z,68.15
2023-02-11T11:56:16.646Z,68.90
2023-02-11T11:58:46.645Z,68.99
2023-02-11T12:01:36.509Z,70.15
2023-02-11T12:04:38.439Z,70.50
2023-02-11T12:07:31.502Z,70.52
2023-02-11T12:10:18.645Z,70.79
2023-02-11T12:12:56.967Z,71.63
2023-02-11T12:15:45.183Z,71.36
2023-02-11T12:18:44.338Z,71.59
2023-02-11T12:21:56.269Z,71.66
2023-02-11T12:25:09.606Z,71.85
2023-02-11T12:27:47.584Z,71.84
2023-02-11T12:30:20.613Z,71.87
2023-02-11T12:33:11.669Z,72.30
2023-02-11T12:36:06.806Z,72.12
2023-02-11T12:39:00.455Z,72.56
2023-02-11T12:42:25.278Z,72.28
2023-02-11T12:45:12.873Z,72.30
2023-02-11T12:48:13.382Z,72.95
2023-02-11T12:51:14.758Z,72.87
2023-02-11T12:53:58.755Z,72.77
2023-02-11T12:57:06.680Z,73.31
2023-02-11T12:59:49.808Z,73.63
2023-02-11T13:02:28.610Z,73.12
2023-02-11T13:05:04.018Z,72.83
2023-02-11T13:07:45.635Z,72.89
2023-02-11T13:10:17.888Z,72.13
2023-02-11T13:13:09.483Z,72.38
2023-02-11T13:15:37.091Z,72.90
2023-02-11T13:18:44.040Z,72.88
2023-02-11T13:21:21.702Z,73.12
2023-02-11T13:24:15.699Z,73.20
2023-02-11T13:27:00.195Z,72.58
2023-02-11T13:30:21.056Z,72.45
2023-02-11T13:32:56.564Z,72.78
2023-02-11T13:35:40.793Z,73.14
2023-02-11T13:38:25.501Z,73.34
2023-02-11T13:41:05.114Z,73.74
2023-02-11T13:43:36.340Z,73.67
2023-02-11T13:46:07.087Z,72.97
2023-02-11T13:48:40.025Z,72.69
2023-02-11T13:51:15.428Z,72.85
2023-02-11T13:53:57.378Z,73.44
2023-02-11T13:56:31.974Z,73.36
2023-02-11T13:59:06.377Z,72.92
2023-02-11T14:02:06.811Z,73.00
2023-02-11T14:04:52.644Z,73.59
2023-02-11T14:07:53.277Z,73.35
2023-02-11T14:10:41.352Z,73.37
2023-02-11T14:13:25.796Z,73.59
2023-02-11T14:16:17.084Z,73.32
2023-02-11T14:18:55.916Z,73.11
2023-02-11T14:21:32.232Z,72.78
2023-02-11T14:24:01.440Z,73.25
2023-02-11T14:26:47.195Z,73.30
2023-02-11T14:29:44.477Z,73.79
2023-02-11T14:32:43.860Z,73.48
2023-02-11T14:35:22.971Z,73.23
2023-02-11T14:38:15.756Z,73.28
2023-02-11T14:40:54.055Z,72.75
2023-02-11T14:43:29.538Z,72.98
2023-02-11T14:45:58.825Z,73.04
2023-02-11T14:48:37.932Z,72.62
2023-02-11T14:51:13.743Z,73.04
2023-02-11T14:53:48.959Z,73.47
2023-02-11T14:56:26.411Z,73.72
2023-02-11T14:58:55.266Z,73.76
2023-02-11T15:01:36.318Z,73.48
2023-02-11T15:04:06.348Z,73.82
2023-02-11T15:06:47.465Z,73.78
2023-02-11T15:09:19.856Z,74.49
2023-02-11T15:11:49.709Z,74.12
2023-02-11T15:14:26.409Z,74.35
2023-02-11T15:16:56.242Z,75.08
2023-02-11T15:19:47.309Z,75.21
2023-02-11T15:22:29.272Z,74.79
2023-02-11T15:25:19.380Z,74.07
2023-02-11T15:27:48.762Z,74.59
2023-02-11T15:30:21.045Z,74.47
2023-02-11T15:32:57.898Z,74.78
2023-02-11T15:35:36.567Z,74.48
2023-02-11T15:38:04.767Z,73.79
2023-02-11T15:40:35.681Z,73.37
2023-02-11T15:43:07.584Z,73.68
2023-02-11T15:45:57.082Z,73.74
2023-02-11T15:48:37.140Z,74.16
2023-02-11T15:51:20.615Z,74.41
2023-02-11T15:53:56.666Z,74.07
2023-02-11T15:56:29.737Z,73.58
2023-02-11T15:59:00.627Z,73.74
2023-02-11T16:01:37.023Z,73.61
2023-02-11T16:04:05.458Z,73.31
2023-02-11T16:06:41.608Z,72.87
2023-02-11T16:09:11.069Z,73.49
2023-02-11T16:11:58.028Z,73.50
2023-02-11T16:14:31.421Z,73.45
2023-02-11T16:17:26.310Z,72.78
2023-02-11T16:19:54.150Z,72.55
2023-02-11T16:22:30.341Z,72.63
2023-02-11T16:24:59.708Z,73.38
2023-02-11T16:27:40.230Z,72.89
2023-02-11T16:30:40.365Z,72.27
2023-02-11T16:33:10.767Z,72.61
2023-02-11T16:35:37.568Z,72.78
2023-02-11T16:38:04.066Z,72.79
2023-02-11T16:40:30.608Z,72.55
2023-02-11T16:42:57.044Z,72.60
2023-02-11T16:45:23.577Z,72.07
2023-02-11T16:47:50.188Z,72.30
2023-02-11T16:50:24.177Z,72.31
2023-02-11T16:52:52.352Z,72.76
2023-02-11T16:55:25.280Z,72.32
2023-02-11T16:57:51.875Z,72.30
2023-02-11T17:00:19.055Z,71.57
2023-02-11T17:02:45.833Z,71.01
2023-02-11T17:05:20.382Z,71.24
2023-02-11T17:07:46.888Z,71.49
2023-02-11T17:10:20.572Z,71.22
2023-02-11T17:12:48.234Z,71.19
2023-02-11T17:15:14.861Z,71.27
2023-02-11T17:17:41.552Z,71.52
2023-02-11T17:20:11.078Z,71.84
2023-02-11T17:22:37.602Z,72.46
2023-02-11T17:25:04.276Z,73.23
2023-02-11T17:27:30.790Z,72.97
2023-02-11T17:29:57.297Z,72.36
2023-02-11T17:32:23.975Z,72.40
2023-02-11T17:34:53.634Z,72.07
2023-02-11T17:37:20.228Z,72.93
2023-02-11T17:39:49.142Z,73.35
2023-02-11T17:42:15.777Z,72.91
2023-02-11T17:44:44.241Z,72.54
2023-02-11T17:47:11.920Z,71.98
2023-02-11T17:49:39.660Z,72.50
2023-02-11T17:52:06.212Z,72.42
2023-02-11T17:54:32.728Z,72.48
2023-02-11T17:56:59.180Z,73.06
2023-02-11T17:59:26.452Z,73.32
2023-02-11T18:01:52.996Z,73.50
2023-02-11T18:04:20.328Z,73.22
2023-02-11T18:06:47.372Z,73.67
2023-02-11T18:09:13.923Z,73.43
2023-02-11T18:11:40.990Z,72.85
2023-02-11T18:14:08.526Z,73.53
2023-02-11T18:16:38.827Z,73.18
2023-02-11T18:19:07.512Z,72.32
2023-02-11T18:21:34.146Z,72.36
2023-02-11T18:24:07.364Z,71.74
2023-02-11T18:26:35.102Z,71.99
2023-02-11T18:29:03.732Z,72.28
2023-02-11T18:31:31.755Z,72.93
2023-02-11T18:33:58.371Z,73.53
2023-02-11T18:36:24.880Z,73.45
2023-02-11T18:38:53.238Z,73.17
2023-02-11T18:41:20.886Z,72.15
2023-02-11T18:43:47.405Z,72.08
2023-02-11T18:46:16.062Z,71.39
2023-02-11T18:48:44.749Z,71.67
2023-02-11T18:51:18.673Z,71.81
2023-02-11T18:53:45.673Z,71.80
2023-02-11T18:56:20.769Z,71.75
2023-02-11T18:58:49.285Z,72.76
2023-02-11T19:01:24.312Z,72.18
2023-02-11T19:03:51.482Z,72.29
2023-02-11T19:06:32.450Z,71.73
2023-02-11T19:09:04.021Z,71.50
2023-02-11T19:11:47.839Z,71.67
2023-02-11T19:14:27.575Z,72.53
2023-02-11T19:17:03.209Z,73.63
2023-02-11T19:19:33.764Z,74.15
2023-02-11T19:22:02.208Z,74.07
2023-02-11T19:24:30.156Z,73.59
2023-02-11T19:27:00.298Z,73.30
2023-02-11T19:29:28.396Z,72.62
2023-02-11T19:31:55.396Z,72.57
2023-02-11T19:34:22.335Z,72.84
2023-02-11T19:36:49.979Z,72.51
2023-02-11T19:39:18.332Z,72.82
2023-02-11T19:41:44.864Z,72.61
2023-02-11T19:44:14.325Z,72.64
2023-02-11T19:46:41.092Z,72.57
2023-02-11T19:49:09.884Z,72.39
2023-02-11T19:51:39.143Z,72.09
2023-02-11T19:54:07.414Z,72.43
2023-02-11T19:56:34.290Z,72.48
2023-02-11T19:59:03.069Z,72.54
2023-02-11T20:01:32.060Z,72.12
2023-02-11T20:03:58.673Z,71.92
2023-02-11T20:06:32.008Z,71.67
2023-02-11T20:09:13.449Z,71.43
2023-02-11T20:11:43.180Z,71.68
2023-02-11T20:14:13.019Z,71.70
2023-02-11T20:16:48.032Z,72.06
2023-02-11T20:19:21.872Z,72.03
2023-02-11T20:21:52.484Z,71.54
2023-02-11T20:24:20.159Z,71.72
2023-02-11T20:26:48.322Z,71.57
2023-02-11T20:29:18.888Z,72.29
2023-02-11T20:31:45.893Z,72.50
2023-02-11T20:34:12.597Z,72.74
2023-02-11T20:36:40.405Z,73.61
2023-02-11T20:39:08.034Z,73.69
2023-02-11T20:41:39.085Z,73.08
2023-02-11T20:44:10.742Z,72.50
2023-02-11T20:46:41.527Z,72.65
2023-02-11T20:49:12.031Z,72.74
2023-02-11T20:51:39.488Z,73.13
2023-02-11T20:54:07.567Z,72.83
2023-02-11T20:56:36.994Z,72.55
2023-02-11T20:59:05.703Z,71.73
2023-02-11T21:01:36.983Z,71.86
2023-02-11T21:04:14.377Z,73.59
2023-02-11T21:06:48.714Z,73.59
2023-02-11T21:09:20.034Z,73.43
2023-02-11T21:11:48.449Z,73.18
2023-02-11T21:14:15.347Z,73.38
2023-02-11T21:16:42.177Z,72.20
2023-02-11T21:19:08.738Z,72.34
2023-02-11T21:21:37.982Z,72.51
2023-02-11T21:24:06.896Z,72.71
2023-02-11T21:26:35.335Z,72.55
2023-02-11T21:29:07.346Z,73.40
2023-02-11T21:31:35.993Z,73.11
2023-02-11T21:34:03.196Z,72.88
2023-02-11T21:36:30.987Z,72.52
2023-02-11T21:38:57.843Z,72.01
2023-02-11T21:41:24.833Z,72.20
2023-02-11T21:43:52.407Z,71.92
2023-02-11T21:46:20.568Z,72.57
2023-02-11T21:48:47.954Z,73.30
2023-02-11T21:51:26.250Z,73.75
2023-02-11T21:54:01.505Z,73.67
2023-02-11T21:56:30.654Z,73.18
2023-02-11T21:58:59.605Z,72.18
2023-02-11T22:01:30.489Z,72.34
2023-02-11T22:03:58.440Z,72.58
2023-02-11T22:06:32.982Z,72.38
2023-02-11T22:09:05.888Z,72.58
2023-02-11T22:11:32.541Z,72.50
2023-02-11T22:13:59.294Z,73.06
2023-02-11T22:16:28.144Z,72.60
2023-02-11T22:18:58.433Z,72.39
2023-02-11T22:21:28.221Z,71.62
2023-02-11T22:23:55.822Z,71.87
2023-02-11T22:26:26.296Z,71.86
2023-02-11T22:28:53.817Z,72.19
2023-02-11T22:31:28.274Z,72.55
2023-02-11T22:33:55.275Z,73.38
2023-02-11T22:36:26.436Z,73.53
2023-02-11T22:38:59.435Z,73.06
2023-02-11T22:41:26.001Z,72.85
2023-02-11T22:43:52.487Z,72.89
2023-02-11T22:46:19.982Z,71.82
2023-02-11T22:48:48.498Z,72.02
2023-02-11T22:51:19.619Z,71.82
2023-02-11T22:54:07.122Z,72.63
2023-02-11T22:56:35.231Z,72.67
2023-02-11T22:59:06.229Z,73.11
2023-02-11T23:01:33.784Z,73.36
2023-02-11T23:04:04.321Z,72.77
2023-02-11T23:06:31.410Z,72.72
2023-02-11T23:08:57.987Z,72.79
2023-02-11T23:11:28.683Z,72.64
2023-02-11T23:13:55.577Z,72.87
2023-02-11T23:16:30.692Z,72.93
2023-02-11T23:19:01.128Z,73.27
2023-02-11T23:21:31.914Z,72.72
2023-02-11T23:24:10.923Z,73.00
2023-02-11T23:26:40.695Z,72.82
2023-02-11T23:29:07.724Z,72.15
2023-02-11T23:31:39.744Z,72.08
2023-02-11T23:34:08.241Z,72.53
2023-02-11T23:36:35.471Z,72.18
2023-02-11T23:39:02.820Z,72.01
2023-02-11T23:41:29.521Z,72.23
2023-02-11T23:43:58.961Z,71.67
2023-02-11T23:46:27.530Z,72.03
2023-02-11T23:48:54.424Z,72.03
2023-02-11T23:51:21.750Z,71.51
2023-02-11T23:53:53.658Z,71.66
2023-02-11T23:56:27.668Z,71.72
2023-02-11T23:58:57.735Z,71.70
